sensor_id;sensor_type;location;lat;lon;timestamp;P1;durP1;ratioP1;P2;durP2;ratioP2
62435;SDS011;48480;50.252;18.848;2023-11-18T00:00:53;10.10;;;7.10;;
62435;SDS011;48480;50.252;18.848;2023-11-18T00:03:37;9.90;;;6.70;;
62435;SDS011;48480;50.252;18.848;2023-11-18T00:06:21;14.30;;;7.90;;
62435;SDS011;48480;50.252;18.848;2023-11-18T00:09:05;12.30;;;6.90;;
62435;SDS011;48480;50.252;18.848;2023-11-18T00:11:50;8.30;;;6.00;;
62435;SDS011;48480;50.252;18.848;2023-11-18T00:14:34;10.40;;;7.20;;
62435;SDS011;48480;50.252;18.848;2023-11-18T00:17:18;7.70;;;5.10;;
62435;SDS011;48480;50.252;18.848;2023-11-18T00:20:04;8.30;;;5.60;;
62435;SDS011;48480;50.252;18.848;2023-11-18T00:22:53;7.00;;;5.30;;
62435;SDS011;48480;50.252;18.848;2023-11-18T00:25:38;8.40;;;5.30;;
62435;SDS011;48480;50.252;18.848;2023-11-18T00:28:23;8.40;;;5.70;;
62435;SDS011;48480;50.252;18.848;2023-11-18T00:31:07;8.20;;;6.00;;
62435;SDS011;48480;50.252;18.848;2023-11-18T00:33:51;7.50;;;5.10;;
62435;SDS011;48480;50.252;18.848;2023-11-18T00:36:36;7.80;;;5.10;;
62435;SDS011;48480;50.252;18.848;2023-11-18T00:39:20;8.60;;;6.00;;
62435;SDS011;48480;50.252;18.848;2023-11-18T00:42:04;8.90;;;5.00;;
62435;SDS011;48480;50.252;18.848;2023-11-18T00:44:49;6.70;;;4.70;;
62435;SDS011;48480;50.252;18.848;2023-11-18T00:47:33;9.40;;;5.80;;
62435;SDS011;48480;50.252;18.848;2023-11-18T00:50:17;8.90;;;6.30;;
62435;SDS011;48480;50.252;18.848;2023-11-18T00:53:01;10.10;;;6.60;;
62435;SDS011;48480;50.252;18.848;2023-11-18T00:55:45;9.80;;;7.20;;
62435;SDS011;48480;50.252;18.848;2023-11-18T00:58:29;11.20;;;6.70;;
62435;SDS011;48480;50.252;18.848;2023-11-18T01:01:13;12.00;;;7.30;;
62435;SDS011;48480;50.252;18.848;2023-11-18T01:04:01;11.90;;;7.80;;
62435;SDS011;48480;50.252;18.848;2023-11-18T01:06:45;15.40;;;9.00;;
62435;SDS011;48480;50.252;18.848;2023-11-18T01:09:29;12.00;;;8.20;;
62435;SDS011;48480;50.252;18.848;2023-11-18T01:12:20;10.20;;;6.40;;
62435;SDS011;48480;50.252;18.848;2023-11-18T01:15:04;8.30;;;5.80;;
62435;SDS011;48480;50.252;18.848;2023-11-18T01:17:48;8.80;;;5.40;;
62435;SDS011;48480;50.252;18.848;2023-11-18T01:20:32;9.70;;;6.40;;
62435;SDS011;48480;50.252;18.848;2023-11-18T01:23:17;8.20;;;6.30;;
62435;SDS011;48480;50.252;18.848;2023-11-18T01:26:01;8.60;;;5.30;;
62435;SDS011;48480;50.252;18.848;2023-11-18T01:28:48;6.20;;;5.10;;
62435;SDS011;48480;50.252;18.848;2023-11-18T01:31:32;7.70;;;4.90;;
62435;SDS011;48480;50.252;18.848;2023-11-18T01:34:17;8.50;;;4.80;;
62435;SDS011;48480;50.252;18.848;2023-11-18T01:37:02;6.70;;;4.40;;
62435;SDS011;48480;50.252;18.848;2023-11-18T01:39:48;7.50;;;4.30;;
62435;SDS011;48480;50.252;18.848;2023-11-18T01:42:33;6.50;;;5.10;;
62435;SDS011;48480;50.252;18.848;2023-11-18T01:45:17;6.90;;;4.70;;
62435;SDS011;48480;50.252;18.848;2023-11-18T01:48:01;4.10;;;2.90;;
62435;SDS011;48480;50.252;18.848;2023-11-18T01:50:46;4.50;;;3.30;;
62435;SDS011;48480;50.252;18.848;2023-11-18T01:53:31;4.70;;;3.10;;
62435;SDS011;48480;50.252;18.848;2023-11-18T01:56:17;3.50;;;2.70;;
62435;SDS011;48480;50.252;18.848;2023-11-18T01:59:02;3.70;;;2.90;;
62435;SDS011;48480;50.252;18.848;2023-11-18T02:01:52;8.50;;;3.30;;
62435;SDS011;48480;50.252;18.848;2023-11-18T02:04:37;6.90;;;3.60;;
62435;SDS011;48480;50.252;18.848;2023-11-18T02:07:21;5.40;;;3.40;;
62435;SDS011;48480;50.252;18.848;2023-11-18T02:10:06;4.50;;;3.30;;
62435;SDS011;48480;50.252;18.848;2023-11-18T02:13:04;5.00;;;3.50;;
62435;SDS011;48480;50.252;18.848;2023-11-18T02:15:56;6.60;;;3.60;;
62435;SDS011;48480;50.252;18.848;2023-11-18T02:18:40;7.80;;;4.00;;
62435;SDS011;48480;50.252;18.848;2023-11-18T02:21:26;6.40;;;4.00;;
62435;SDS011;48480;50.252;18.848;2023-11-18T02:24:24;9.90;;;5.30;;
62435;SDS011;48480;50.252;18.848;2023-11-18T02:27:09;9.00;;;5.80;;
62435;SDS011;48480;50.252;18.848;2023-11-18T02:29:58;12.70;;;5.80;;
62435;SDS011;48480;50.252;18.848;2023-11-18T02:32:45;11.60;;;6.30;;
62435;SDS011;48480;50.252;18.848;2023-11-18T02:35:36;10.30;;;6.00;;
62435;SDS011;48480;50.252;18.848;2023-11-18T02:38:29;8.90;;;5.40;;
62435;SDS011;48480;50.252;18.848;2023-11-18T02:41:19;10.50;;;5.10;;
62435;SDS011;48480;50.252;18.848;2023-11-18T02:44:05;8.20;;;5.60;;
62435;SDS011;48480;50.252;18.848;2023-11-18T02:46:54;7.00;;;4.80;;
62435;SDS011;48480;50.252;18.848;2023-11-18T02:49:38;9.00;;;5.80;;
62435;SDS011;48480;50.252;18.848;2023-11-18T02:52:23;7.80;;;6.00;;
62435;SDS011;48480;50.252;18.848;2023-11-18T02:55:07;7.50;;;5.90;;
62435;SDS011;48480;50.252;18.848;2023-11-18T02:57:52;9.30;;;5.20;;
62435;SDS011;48480;50.252;18.848;2023-11-18T03:00:36;9.10;;;5.70;;
62435;SDS011;48480;50.252;18.848;2023-11-18T03:03:22;10.60;;;6.10;;
62435;SDS011;48480;50.252;18.848;2023-11-18T03:06:06;12.90;;;7.20;;
62435;SDS011;48480;50.252;18.848;2023-11-18T03:08:50;10.50;;;6.50;;
62435;SDS011;48480;50.252;18.848;2023-11-18T03:11:35;8.20;;;5.60;;
62435;SDS011;48480;50.252;18.848;2023-11-18T03:14:20;9.10;;;5.40;;
62435;SDS011;48480;50.252;18.848;2023-11-18T03:17:04;10.70;;;6.40;;
62435;SDS011;48480;50.252;18.848;2023-11-18T03:19:53;9.20;;;6.00;;
62435;SDS011;48480;50.252;18.848;2023-11-18T03:22:37;7.70;;;5.70;;
62435;SDS011;48480;50.252;18.848;2023-11-18T03:25:21;9.50;;;5.50;;
62435;SDS011;48480;50.252;18.848;2023-11-18T03:28:05;8.40;;;5.50;;
62435;SDS011;48480;50.252;18.848;2023-11-18T03:30:50;6.90;;;4.30;;
62435;SDS011;48480;50.252;18.848;2023-11-18T03:33:34;6.30;;;4.40;;
62435;SDS011;48480;50.252;18.848;2023-11-18T03:36:18;8.10;;;5.40;;
62435;SDS011;48480;50.252;18.848;2023-11-18T03:39:03;6.30;;;4.70;;
62435;SDS011;48480;50.252;18.848;2023-11-18T03:41:48;7.20;;;4.00;;
62435;SDS011;48480;50.252;18.848;2023-11-18T03:44:34;6.50;;;4.40;;
62435;SDS011;48480;50.252;18.848;2023-11-18T03:47:18;5.70;;;3.00;;
62435;SDS011;48480;50.252;18.848;2023-11-18T03:50:02;5.40;;;3.20;;
62435;SDS011;48480;50.252;18.848;2023-11-18T03:52:47;5.20;;;2.40;;
62435;SDS011;48480;50.252;18.848;2023-11-18T03:55:31;2.60;;;1.90;;
62435;SDS011;48480;50.252;18.848;2023-11-18T03:58:16;3.20;;;2.10;;
62435;SDS011;48480;50.252;18.848;2023-11-18T04:01:00;3.90;;;3.00;;
62435;SDS011;48480;50.252;18.848;2023-11-18T04:03:46;4.20;;;3.10;;
62435;SDS011;48480;50.252;18.848;2023-11-18T04:06:30;4.30;;;2.70;;
62435;SDS011;48480;50.252;18.848;2023-11-18T04:09:14;2.20;;;1.90;;
62435;SDS011;48480;50.252;18.848;2023-11-18T04:11:58;3.30;;;2.30;;
62435;SDS011;48480;50.252;18.848;2023-11-18T04:14:42;2.80;;;2.50;;
62435;SDS011;48480;50.252;18.848;2023-11-18T04:17:26;3.60;;;3.00;;
62435;SDS011;48480;50.252;18.848;2023-11-18T04:20:12;4.50;;;3.10;;
62435;SDS011;48480;50.252;18.848;2023-11-18T04:22:56;3.20;;;2.30;;
62435;SDS011;48480;50.252;18.848;2023-11-18T04:25:40;3.50;;;2.70;;
62435;SDS011;48480;50.252;18.848;2023-11-18T04:28:24;3.70;;;2.50;;
62435;SDS011;48480;50.252;18.848;2023-11-18T04:31:10;3.80;;;2.00;;
62435;SDS011;48480;50.252;18.848;2023-11-18T04:33:55;3.80;;;2.80;;
62435;SDS011;48480;50.252;18.848;2023-11-18T04:36:41;4.20;;;2.50;;
62435;SDS011;48480;50.252;18.848;2023-11-18T04:39:25;4.90;;;3.00;;
62435;SDS011;48480;50.252;18.848;2023-11-18T04:42:09;5.40;;;2.90;;
62435;SDS011;48480;50.252;18.848;2023-11-18T04:44:53;4.00;;;2.80;;
62435;SDS011;48480;50.252;18.848;2023-11-18T04:47:38;5.00;;;3.50;;
62435;SDS011;48480;50.252;18.848;2023-11-18T04:50:23;7.00;;;4.40;;
62435;SDS011;48480;50.252;18.848;2023-11-18T04:53:07;6.00;;;4.80;;
62435;SDS011;48480;50.252;18.848;2023-11-18T04:55:54;4.90;;;3.70;;
62435;SDS011;48480;50.252;18.848;2023-11-18T04:58:38;5.10;;;3.80;;
62435;SDS011;48480;50.252;18.848;2023-11-18T05:01:23;6.40;;;4.10;;
62435;SDS011;48480;50.252;18.848;2023-11-18T05:04:07;6.10;;;4.70;;
62435;SDS011;48480;50.252;18.848;2023-11-18T05:06:52;5.40;;;4.30;;
62435;SDS011;48480;50.252;18.848;2023-11-18T05:09:36;5.70;;;5.10;;
62435;SDS011;48480;50.252;18.848;2023-11-18T05:12:21;7.90;;;6.60;;
62435;SDS011;48480;50.252;18.848;2023-11-18T05:15:06;8.80;;;6.20;;
62435;SDS011;48480;50.252;18.848;2023-11-18T05:17:52;8.90;;;6.90;;
62435;SDS011;48480;50.252;18.848;2023-11-18T05:20:37;7.70;;;5.70;;
62435;SDS011;48480;50.252;18.848;2023-11-18T05:23:21;5.90;;;4.40;;
62435;SDS011;48480;50.252;18.848;2023-11-18T05:26:04;4.60;;;3.10;;
62435;SDS011;48480;50.252;18.848;2023-11-18T05:28:49;3.70;;;2.50;;
62435;SDS011;48480;50.252;18.848;2023-11-18T05:31:33;3.90;;;2.40;;
62435;SDS011;48480;50.252;18.848;2023-11-18T05:34:18;3.70;;;2.40;;
62435;SDS011;48480;50.252;18.848;2023-11-18T05:37:04;3.90;;;3.00;;
62435;SDS011;48480;50.252;18.848;2023-11-18T05:39:48;2.90;;;2.20;;
62435;SDS011;48480;50.252;18.848;2023-11-18T05:42:37;4.50;;;3.50;;
62435;SDS011;48480;50.252;18.848;2023-11-18T05:45:22;4.60;;;2.80;;
62435;SDS011;48480;50.252;18.848;2023-11-18T05:48:15;4.10;;;2.70;;
62435;SDS011;48480;50.252;18.848;2023-11-18T05:50:59;3.00;;;2.10;;
62435;SDS011;48480;50.252;18.848;2023-11-18T05:53:43;2.10;;;1.40;;
62435;SDS011;48480;50.252;18.848;2023-11-18T05:56:29;1.20;;;1.10;;
62435;SDS011;48480;50.252;18.848;2023-11-18T05:59:13;2.20;;;1.60;;
62435;SDS011;48480;50.252;18.848;2023-11-18T06:01:57;2.10;;;1.40;;
62435;SDS011;48480;50.252;18.848;2023-11-18T06:04:41;2.60;;;2.00;;
62435;SDS011;48480;50.252;18.848;2023-11-18T06:07:26;3.50;;;2.00;;
62435;SDS011;48480;50.252;18.848;2023-11-18T06:10:11;2.50;;;1.80;;
62435;SDS011;48480;50.252;18.848;2023-11-18T06:12:55;3.10;;;2.10;;
62435;SDS011;48480;50.252;18.848;2023-11-18T06:15:42;2.60;;;1.70;;
62435;SDS011;48480;50.252;18.848;2023-11-18T06:18:27;2.70;;;1.80;;
62435;SDS011;48480;50.252;18.848;2023-11-18T06:21:13;2.60;;;1.90;;
62435;SDS011;48480;50.252;18.848;2023-11-18T06:23:58;2.70;;;2.10;;
62435;SDS011;48480;50.252;18.848;2023-11-18T06:26:43;4.90;;;2.50;;
62435;SDS011;48480;50.252;18.848;2023-11-18T06:29:28;4.20;;;2.90;;
62435;SDS011;48480;50.252;18.848;2023-11-18T06:32:14;5.50;;;3.60;;
62435;SDS011;48480;50.252;18.848;2023-11-18T06:34:59;6.20;;;3.60;;
62435;SDS011;48480;50.252;18.848;2023-11-18T06:37:45;4.90;;;3.20;;
62435;SDS011;48480;50.252;18.848;2023-11-18T06:40:31;4.50;;;3.00;;
62435;SDS011;48480;50.252;18.848;2023-11-18T06:43:16;4.60;;;2.80;;
62435;SDS011;48480;50.252;18.848;2023-11-18T06:46:02;5.50;;;3.40;;
62435;SDS011;48480;50.252;18.848;2023-11-18T06:48:53;8.20;;;2.90;;
62435;SDS011;48480;50.252;18.848;2023-11-18T06:51:38;6.20;;;3.90;;
62435;SDS011;48480;50.252;18.848;2023-11-18T06:54:22;8.60;;;4.20;;
62435;SDS011;48480;50.252;18.848;2023-11-18T06:57:08;7.60;;;4.70;;
62435;SDS011;48480;50.252;18.848;2023-11-18T06:59:52;11.60;;;6.30;;
62435;SDS011;48480;50.252;18.848;2023-11-18T07:02:36;6.50;;;4.00;;
62435;SDS011;48480;50.252;18.848;2023-11-18T07:05:20;8.50;;;4.70;;
62435;SDS011;48480;50.252;18.848;2023-11-18T07:08:08;14.80;;;7.30;;
62435;SDS011;48480;50.252;18.848;2023-11-18T07:10:52;10.10;;;6.10;;
62435;SDS011;48480;50.252;18.848;2023-11-18T07:13:36;30.50;;;13.10;;
62435;SDS011;48480;50.252;18.848;2023-11-18T07:16:20;19.40;;;9.70;;
62435;SDS011;48480;50.252;18.848;2023-11-18T07:19:05;17.80;;;7.90;;
62435;SDS011;48480;50.252;18.848;2023-11-18T07:21:49;18.30;;;8.90;;
62435;SDS011;48480;50.252;18.848;2023-11-18T07:24:34;16.30;;;7.30;;
62435;SDS011;48480;50.252;18.848;2023-11-18T07:27:18;10.70;;;7.30;;
62435;SDS011;48480;50.252;18.848;2023-11-18T07:30:02;14.00;;;8.50;;
62435;SDS011;48480;50.252;18.848;2023-11-18T07:32:50;12.70;;;7.00;;
62435;SDS011;48480;50.252;18.848;2023-11-18T07:35:35;13.10;;;7.80;;
62435;SDS011;48480;50.252;18.848;2023-11-18T07:38:20;14.90;;;7.80;;
62435;SDS011;48480;50.252;18.848;2023-11-18T07:41:04;16.30;;;9.90;;
62435;SDS011;48480;50.252;18.848;2023-11-18T07:43:53;16.70;;;9.10;;
62435;SDS011;48480;50.252;18.848;2023-11-18T07:46:39;13.50;;;7.90;;
62435;SDS011;48480;50.252;18.848;2023-11-18T07:49:26;17.50;;;9.70;;
62435;SDS011;48480;50.252;18.848;2023-11-18T07:52:10;13.00;;;8.00;;
62435;SDS011;48480;50.252;18.848;2023-11-18T07:54:54;14.90;;;9.70;;
62435;SDS011;48480;50.252;18.848;2023-11-18T07:57:38;14.00;;;7.40;;
62435;SDS011;48480;50.252;18.848;2023-11-18T08:00:23;18.00;;;10.70;;
62435;SDS011;48480;50.252;18.848;2023-11-18T08:03:08;19.50;;;10.00;;
62435;SDS011;48480;50.252;18.848;2023-11-18T08:05:57;14.20;;;9.10;;
62435;SDS011;48480;50.252;18.848;2023-11-18T08:08:42;11.30;;;6.30;;
62435;SDS011;48480;50.252;18.848;2023-11-18T08:11:26;15.00;;;8.90;;
62435;SDS011;48480;50.252;18.848;2023-11-18T08:14:10;13.40;;;9.20;;
62435;SDS011;48480;50.252;18.848;2023-11-18T08:16:54;15.10;;;9.90;;
62435;SDS011;48480;50.252;18.848;2023-11-18T08:19:39;15.10;;;7.80;;
62435;SDS011;48480;50.252;18.848;2023-11-18T08:22:24;12.50;;;6.80;;
62435;SDS011;48480;50.252;18.848;2023-11-18T08:25:10;14.20;;;7.60;;
62435;SDS011;48480;50.252;18.848;2023-11-18T08:27:59;11.70;;;7.20;;
62435;SDS011;48480;50.252;18.848;2023-11-18T08:30:44;10.90;;;7.30;;
62435;SDS011;48480;50.252;18.848;2023-11-18T08:33:28;12.90;;;8.10;;
62435;SDS011;48480;50.252;18.848;2023-11-18T08:36:13;12.60;;;7.00;;
62435;SDS011;48480;50.252;18.848;2023-11-18T08:38:57;11.50;;;7.00;;
62435;SDS011;48480;50.252;18.848;2023-11-18T08:41:42;14.10;;;7.90;;
62435;SDS011;48480;50.252;18.848;2023-11-18T08:44:27;12.00;;;6.60;;
62435;SDS011;48480;50.252;18.848;2023-11-18T08:47:12;9.80;;;5.40;;
62435;SDS011;48480;50.252;18.848;2023-11-18T08:49:56;10.90;;;6.60;;
62435;SDS011;48480;50.252;18.848;2023-11-18T08:52:41;12.70;;;6.30;;
62435;SDS011;48480;50.252;18.848;2023-11-18T08:55:30;14.50;;;9.60;;
62435;SDS011;48480;50.252;18.848;2023-11-18T08:58:25;18.50;;;10.80;;
62435;SDS011;48480;50.252;18.848;2023-11-18T09:01:16;17.70;;;9.30;;
62435;SDS011;48480;50.252;18.848;2023-11-18T09:04:01;14.80;;;8.80;;
62435;SDS011;48480;50.252;18.848;2023-11-18T09:06:45;21.10;;;10.80;;
62435;SDS011;48480;50.252;18.848;2023-11-18T09:09:29;14.00;;;8.40;;
62435;SDS011;48480;50.252;18.848;2023-11-18T09:12:15;15.30;;;8.60;;
62435;SDS011;48480;50.252;18.848;2023-11-18T09:14:59;16.60;;;9.90;;
62435;SDS011;48480;50.252;18.848;2023-11-18T09:17:42;13.90;;;7.50;;
62435;SDS011;48480;50.252;18.848;2023-11-18T09:20:28;13.00;;;7.50;;
62435;SDS011;48480;50.252;18.848;2023-11-18T09:23:13;13.10;;;7.50;;
62435;SDS011;48480;50.252;18.848;2023-11-18T09:25:59;12.40;;;7.10;;
62435;SDS011;48480;50.252;18.848;2023-11-18T09:28:44;11.70;;;7.70;;
62435;SDS011;48480;50.252;18.848;2023-11-18T09:31:28;14.10;;;8.90;;
62435;SDS011;48480;50.252;18.848;2023-11-18T09:34:12;13.80;;;8.40;;
62435;SDS011;48480;50.252;18.848;2023-11-18T09:36:59;16.10;;;9.20;;
62435;SDS011;48480;50.252;18.848;2023-11-18T09:39:43;13.90;;;8.70;;
62435;SDS011;48480;50.252;18.848;2023-11-18T09:42:29;9.50;;;5.90;;
62435;SDS011;48480;50.252;18.848;2023-11-18T09:45:13;6.40;;;4.50;;
62435;SDS011;48480;50.252;18.848;2023-11-18T09:48:03;6.30;;;3.80;;
62435;SDS011;48480;50.252;18.848;2023-11-18T09:50:51;5.90;;;3.80;;
62435;SDS011;48480;50.252;18.848;2023-11-18T09:53:37;7.00;;;4.20;;
62435;SDS011;48480;50.252;18.848;2023-11-18T09:59:58;5.40;;;3.40;;
62435;SDS011;48480;50.252;18.848;2023-11-18T10:02:54;4.90;;;2.80;;
62435;SDS011;48480;50.252;18.848;2023-11-18T10:05:44;5.10;;;3.70;;
62435;SDS011;48480;50.252;18.848;2023-11-18T10:08:28;5.60;;;3.70;;
62435;SDS011;48480;50.252;18.848;2023-11-18T10:11:14;6.10;;;3.90;;
62435;SDS011;48480;50.252;18.848;2023-11-18T10:13:58;5.00;;;3.30;;
62435;SDS011;48480;50.252;18.848;2023-11-18T10:16:49;4.90;;;3.00;;
62435;SDS011;48480;50.252;18.848;2023-11-18T10:22:34;7.20;;;3.70;;
62435;SDS011;48480;50.252;18.848;2023-11-18T10:25:26;7.70;;;4.50;;
62435;SDS011;48480;50.252;18.848;2023-11-18T10:28:20;6.20;;;4.20;;
62435;SDS011;48480;50.252;18.848;2023-11-18T10:31:06;6.50;;;4.60;;
62435;SDS011;48480;50.252;18.848;2023-11-18T10:33:52;5.60;;;3.70;;
62435;SDS011;48480;50.252;18.848;2023-11-18T10:36:36;6.50;;;3.30;;
62435;SDS011;48480;50.252;18.848;2023-11-18T10:39:21;7.20;;;4.30;;
62435;SDS011;48480;50.252;18.848;2023-11-18T10:42:06;9.90;;;4.90;;
62435;SDS011;48480;50.252;18.848;2023-11-18T10:44:54;9.00;;;4.90;;
62435;SDS011;48480;50.252;18.848;2023-11-18T10:47:42;11.00;;;6.70;;
62435;SDS011;48480;50.252;18.848;2023-11-18T10:50:26;13.70;;;7.00;;
62435;SDS011;48480;50.252;18.848;2023-11-18T10:53:16;7.00;;;4.50;;
62435;SDS011;48480;50.252;18.848;2023-11-18T10:56:03;9.70;;;6.30;;
62435;SDS011;48480;50.252;18.848;2023-11-18T10:58:50;8.50;;;6.30;;
62435;SDS011;48480;50.252;18.848;2023-11-18T11:01:38;9.80;;;7.10;;
62435;SDS011;48480;50.252;18.848;2023-11-18T11:04:28;18.40;;;12.00;;
62435;SDS011;48480;50.252;18.848;2023-11-18T11:07:27;10.00;;;7.10;;
62435;SDS011;48480;50.252;18.848;2023-11-18T11:10:13;13.60;;;7.70;;
62435;SDS011;48480;50.252;18.848;2023-11-18T11:12:59;18.90;;;9.80;;
62435;SDS011;48480;50.252;18.848;2023-11-18T11:15:45;10.60;;;7.30;;
62435;SDS011;48480;50.252;18.848;2023-11-18T11:18:36;13.60;;;8.70;;
62435;SDS011;48480;50.252;18.848;2023-11-18T11:21:28;7.00;;;5.30;;
62435;SDS011;48480;50.252;18.848;2023-11-18T11:24:33;8.40;;;5.20;;
62435;SDS011;48480;50.252;18.848;2023-11-18T11:27:31;8.40;;;5.00;;
62435;SDS011;48480;50.252;18.848;2023-11-18T11:30:23;7.40;;;4.80;;
62435;SDS011;48480;50.252;18.848;2023-11-18T11:36:11;6.60;;;5.10;;
62435;SDS011;48480;50.252;18.848;2023-11-18T11:38:59;6.20;;;4.50;;
62435;SDS011;48480;50.252;18.848;2023-11-18T11:41:45;8.60;;;5.50;;
62435;SDS011;48480;50.252;18.848;2023-11-18T11:44:29;7.20;;;5.00;;
62435;SDS011;48480;50.252;18.848;2023-11-18T11:47:14;8.70;;;4.90;;
62435;SDS011;48480;50.252;18.848;2023-11-18T11:50:06;10.10;;;6.10;;
62435;SDS011;48480;50.252;18.848;2023-11-18T11:53:06;8.40;;;6.10;;
62435;SDS011;48480;50.252;18.848;2023-11-18T11:55:57;12.50;;;6.10;;
62435;SDS011;48480;50.252;18.848;2023-11-18T11:58:49;7.30;;;4.90;;
62435;SDS011;48480;50.252;18.848;2023-11-18T12:01:37;5.30;;;4.00;;
62435;SDS011;48480;50.252;18.848;2023-11-18T12:04:21;7.70;;;5.10;;
62435;SDS011;48480;50.252;18.848;2023-11-18T12:07:12;7.80;;;5.00;;
62435;SDS011;48480;50.252;18.848;2023-11-18T12:09:59;7.70;;;5.20;;
62435;SDS011;48480;50.252;18.848;2023-11-18T12:12:44;9.10;;;5.70;;
62435;SDS011;48480;50.252;18.848;2023-11-18T12:15:47;6.60;;;4.60;;
62435;SDS011;48480;50.252;18.848;2023-11-18T12:18:40;6.20;;;4.10;;
62435;SDS011;48480;50.252;18.848;2023-11-18T12:24:39;11.00;;;6.60;;
62435;SDS011;48480;50.252;18.848;2023-11-18T12:30:43;10.80;;;7.00;;
62435;SDS011;48480;50.252;18.848;2023-11-18T12:43:08;10.80;;;6.00;;
62435;SDS011;48480;50.252;18.848;2023-11-18T12:48:58;9.90;;;6.40;;
62435;SDS011;48480;50.252;18.848;2023-11-18T12:51:44;10.10;;;5.80;;
62435;SDS011;48480;50.252;18.848;2023-11-18T12:54:29;9.10;;;5.90;;
62435;SDS011;48480;50.252;18.848;2023-11-18T12:57:14;7.90;;;5.40;;
62435;SDS011;48480;50.252;18.848;2023-11-18T12:59:58;12.80;;;7.30;;
62435;SDS011;48480;50.252;18.848;2023-11-18T13:02:44;12.10;;;7.60;;
62435;SDS011;48480;50.252;18.848;2023-11-18T13:05:30;12.20;;;8.20;;
62435;SDS011;48480;50.252;18.848;2023-11-18T13:08:13;9.70;;;5.90;;
62435;SDS011;48480;50.252;18.848;2023-11-18T13:11:01;14.50;;;7.90;;
62435;SDS011;48480;50.252;18.848;2023-11-18T13:13:48;11.60;;;7.50;;
62435;SDS011;48480;50.252;18.848;2023-11-18T13:16:35;9.60;;;7.10;;
62435;SDS011;48480;50.252;18.848;2023-11-18T13:19:26;12.40;;;7.70;;
62435;SDS011;48480;50.252;18.848;2023-11-18T13:22:13;11.20;;;7.70;;
62435;SDS011;48480;50.252;18.848;2023-11-18T13:24:58;10.60;;;7.50;;
62435;SDS011;48480;50.252;18.848;2023-11-18T13:27:42;9.60;;;6.80;;
62435;SDS011;48480;50.252;18.848;2023-11-18T13:30:27;11.70;;;7.10;;
62435;SDS011;48480;50.252;18.848;2023-11-18T13:33:13;8.50;;;5.40;;
62435;SDS011;48480;50.252;18.848;2023-11-18T13:35:57;11.70;;;7.70;;
62435;SDS011;48480;50.252;18.848;2023-11-18T13:38:42;11.10;;;7.30;;
62435;SDS011;48480;50.252;18.848;2023-11-18T13:41:31;11.30;;;7.60;;
62435;SDS011;48480;50.252;18.848;2023-11-18T13:44:35;13.60;;;9.10;;
62435;SDS011;48480;50.252;18.848;2023-11-18T13:47:23;13.00;;;8.00;;
62435;SDS011;48480;50.252;18.848;2023-11-18T13:50:09;12.80;;;8.40;;
62435;SDS011;48480;50.252;18.848;2023-11-18T13:52:53;14.30;;;9.20;;
62435;SDS011;48480;50.252;18.848;2023-11-18T13:55:38;12.10;;;8.10;;
62435;SDS011;48480;50.252;18.848;2023-11-18T13:58:23;11.50;;;8.20;;
62435;SDS011;48480;50.252;18.848;2023-11-18T14:01:08;10.10;;;7.20;;
62435;SDS011;48480;50.252;18.848;2023-11-18T14:03:54;14.90;;;8.10;;
62435;SDS011;48480;50.252;18.848;2023-11-18T14:07:07;13.30;;;8.10;;
62435;SDS011;48480;50.252;18.848;2023-11-18T14:09:59;17.20;;;9.80;;
62435;SDS011;48480;50.252;18.848;2023-11-18T14:12:59;14.90;;;9.10;;
62435;SDS011;48480;50.252;18.848;2023-11-18T14:15:49;13.90;;;7.40;;
62435;SDS011;48480;50.252;18.848;2023-11-18T14:18:41;13.20;;;8.30;;
62435;SDS011;48480;50.252;18.848;2023-11-18T14:21:25;16.40;;;8.80;;
62435;SDS011;48480;50.252;18.848;2023-11-18T14:24:09;16.00;;;10.00;;
62435;SDS011;48480;50.252;18.848;2023-11-18T14:26:57;13.20;;;9.10;;
62435;SDS011;48480;50.252;18.848;2023-11-18T14:29:43;11.00;;;7.80;;
62435;SDS011;48480;50.252;18.848;2023-11-18T14:32:29;14.40;;;9.40;;
62435;SDS011;48480;50.252;18.848;2023-11-18T14:35:13;18.70;;;11.50;;
62435;SDS011;48480;50.252;18.848;2023-11-18T14:38:01;18.00;;;11.90;;
62435;SDS011;48480;50.252;18.848;2023-11-18T14:40:45;16.70;;;11.20;;
62435;SDS011;48480;50.252;18.848;2023-11-18T14:43:33;21.60;;;12.70;;
62435;SDS011;48480;50.252;18.848;2023-11-18T14:46:17;14.30;;;8.90;;
62435;SDS011;48480;50.252;18.848;2023-11-18T14:49:11;17.90;;;9.90;;
62435;SDS011;48480;50.252;18.848;2023-11-18T14:51:55;21.90;;;11.80;;
62435;SDS011;48480;50.252;18.848;2023-11-18T14:54:40;18.10;;;10.40;;
62435;SDS011;48480;50.252;18.848;2023-11-18T14:57:24;30.30;;;13.30;;
62435;SDS011;48480;50.252;18.848;2023-11-18T15:00:08;40.70;;;17.10;;
62435;SDS011;48480;50.252;18.848;2023-11-18T15:02:53;24.70;;;13.10;;
62435;SDS011;48480;50.252;18.848;2023-11-18T15:05:41;19.70;;;11.70;;
62435;SDS011;48480;50.252;18.848;2023-11-18T15:08:27;23.20;;;11.90;;
62435;SDS011;48480;50.252;18.848;2023-11-18T15:11:20;27.00;;;14.20;;
62435;SDS011;48480;50.252;18.848;2023-11-18T15:14:05;19.60;;;11.50;;
62435;SDS011;48480;50.252;18.848;2023-11-18T15:16:50;31.20;;;14.60;;
62435;SDS011;48480;50.252;18.848;2023-11-18T15:19:34;43.00;;;19.70;;
62435;SDS011;48480;50.252;18.848;2023-11-18T15:22:19;31.60;;;16.20;;
62435;SDS011;48480;50.252;18.848;2023-11-18T15:25:04;29.10;;;16.60;;
62435;SDS011;48480;50.252;18.848;2023-11-18T15:27:53;18.50;;;12.60;;
62435;SDS011;48480;50.252;18.848;2023-11-18T15:30:37;25.40;;;14.90;;
62435;SDS011;48480;50.252;18.848;2023-11-18T15:33:21;19.90;;;10.80;;
62435;SDS011;48480;50.252;18.848;2023-11-18T15:36:08;18.20;;;10.10;;
62435;SDS011;48480;50.252;18.848;2023-11-18T15:38:53;24.00;;;12.80;;
62435;SDS011;48480;50.252;18.848;2023-11-18T15:41:37;33.10;;;17.40;;
62435;SDS011;48480;50.252;18.848;2023-11-18T15:44:21;33.20;;;20.70;;
62435;SDS011;48480;50.252;18.848;2023-11-18T15:47:05;23.20;;;13.00;;
62435;SDS011;48480;50.252;18.848;2023-11-18T15:49:50;20.90;;;11.50;;
62435;SDS011;48480;50.252;18.848;2023-11-18T15:52:34;41.00;;;24.00;;
62435;SDS011;48480;50.252;18.848;2023-11-18T15:55:18;58.70;;;33.90;;
62435;SDS011;48480;50.252;18.848;2023-11-18T15:58:02;19.50;;;12.60;;
62435;SDS011;48480;50.252;18.848;2023-11-18T16:00:47;14.10;;;9.80;;
62435;SDS011;48480;50.252;18.848;2023-11-18T16:03:35;18.30;;;10.90;;
62435;SDS011;48480;50.252;18.848;2023-11-18T16:06:20;17.60;;;11.30;;
62435;SDS011;48480;50.252;18.848;2023-11-18T16:09:05;14.00;;;9.40;;
62435;SDS011;48480;50.252;18.848;2023-11-18T16:11:50;12.70;;;7.50;;
62435;SDS011;48480;50.252;18.848;2023-11-18T16:14:35;11.20;;;7.30;;
62435;SDS011;48480;50.252;18.848;2023-11-18T16:17:19;15.00;;;9.60;;
62435;SDS011;48480;50.252;18.848;2023-11-18T16:20:05;14.40;;;10.20;;
62435;SDS011;48480;50.252;18.848;2023-11-18T16:22:50;16.50;;;11.20;;
62435;SDS011;48480;50.252;18.848;2023-11-18T16:25:35;20.10;;;13.30;;
62435;SDS011;48480;50.252;18.848;2023-11-18T16:28:20;25.70;;;16.00;;
62435;SDS011;48480;50.252;18.848;2023-11-18T16:31:07;21.90;;;14.20;;
62435;SDS011;48480;50.252;18.848;2023-11-18T16:33:52;25.00;;;14.70;;
62435;SDS011;48480;50.252;18.848;2023-11-18T16:36:36;16.70;;;10.60;;
62435;SDS011;48480;50.252;18.848;2023-11-18T16:39:23;14.80;;;9.50;;
62435;SDS011;48480;50.252;18.848;2023-11-18T16:42:07;10.90;;;8.20;;
62435;SDS011;48480;50.252;18.848;2023-11-18T16:44:51;16.70;;;11.30;;